sensor_id;sensor_type;location;lat;lon;timestamp;P1;durP1;ratioP1;P2;durP2;ratioP2
26774;SDS011;14362;51.902;7.626;2023-02-11T00:02:16;58.22;;;35.75;;
26774;SDS011;14362;51.902;7.626;2023-02-11T00:06:17;52.25;;;32.47;;
26774;SDS011;14362;51.902;7.626;2023-02-11T00:10:19;51.40;;;31.25;;
26774;SDS011;14362;51.902;7.626;2023-02-11T00:14:20;59.50;;;34.88;;
26774;SDS011;14362;51.902;7.626;2023-02-11T00:18:23;59.38;;;32.40;;
26774;SDS011;14362;51.902;7.626;2023-02-11T00:22:24;55.78;;;32.35;;
26774;SDS011;14362;51.902;7.626;2023-02-11T00:26:27;52.33;;;31.40;;
26774;SDS011;14362;51.902;7.626;2023-02-11T00:30:30;54.75;;;31.50;;
26774;SDS011;14362;51.902;7.626;2023-02-11T00:34:33;53.22;;;31.70;;
26774;SDS011;14362;51.902;7.626;2023-02-11T00:38:35;49.83;;;32.92;;
26774;SDS011;14362;51.902;7.626;2023-02-11T00:42:37;57.33;;;31.33;;
26774;SDS011;14362;51.902;7.626;2023-02-11T00:46:39;55.50;;;30.45;;
26774;SDS011;14362;51.902;7.626;2023-02-11T00:50:41;57.00;;;31.48;;
26774;SDS011;14362;51.902;7.626;2023-02-11T00:54:43;48.70;;;30.38;;
26774;SDS011;14362;51.902;7.626;2023-02-11T00:58:45;55.00;;;31.30;;
26774;SDS011;14362;51.902;7.626;2023-02-11T01:02:46;50.30;;;29.73;;
26774;SDS011;14362;51.902;7.626;2023-02-11T01:06:49;53.08;;;30.50;;
26774;SDS011;14362;51.902;7.626;2023-02-11T01:10:54;48.95;;;30.23;;
26774;SDS011;14362;51.902;7.626;2023-02-11T01:14:57;49.65;;;29.90;;
26774;SDS011;14362;51.902;7.626;2023-02-11T01:18:59;46.25;;;27.85;;
26774;SDS011;14362;51.902;7.626;2023-02-11T01:23:02;48.28;;;28.10;;
26774;SDS011;14362;51.902;7.626;2023-02-11T01:27:03;49.88;;;28.88;;
26774;SDS011;14362;51.902;7.626;2023-02-11T01:31:04;53.03;;;28.98;;
26774;SDS011;14362;51.902;7.626;2023-02-11T01:35:06;43.55;;;27.88;;
26774;SDS011;14362;51.902;7.626;2023-02-11T01:39:10;49.45;;;28.23;;
26774;SDS011;14362;51.902;7.626;2023-02-11T01:43:11;47.88;;;27.33;;
26774;SDS011;14362;51.902;7.626;2023-02-11T01:47:12;49.67;;;29.35;;
26774;SDS011;14362;51.902;7.626;2023-02-11T01:51:16;47.63;;;27.48;;
26774;SDS011;14362;51.902;7.626;2023-02-11T01:55:22;50.88;;;27.83;;
26774;SDS011;14362;51.902;7.626;2023-02-11T01:59:43;45.13;;;27.63;;
26774;SDS011;14362;51.902;7.626;2023-02-11T02:03:48;45.28;;;27.50;;
26774;SDS011;14362;51.902;7.626;2023-02-11T02:07:59;49.30;;;26.92;;
26774;SDS011;14362;51.902;7.626;2023-02-11T02:12:08;45.33;;;25.73;;
26774;SDS011;14362;51.902;7.626;2023-02-11T02:16:10;44.75;;;26.83;;
26774;SDS011;14362;51.902;7.626;2023-02-11T02:24:53;45.90;;;24.13;;
26774;SDS011;14362;51.902;7.626;2023-02-11T02:29:17;41.83;;;24.25;;
26774;SDS011;14362;51.902;7.626;2023-02-11T02:33:50;41.58;;;24.25;;
26774;SDS011;14362;51.902;7.626;2023-02-11T02:37:56;39.08;;;23.25;;
26774;SDS011;14362;51.902;7.626;2023-02-11T02:42:03;39.45;;;22.08;;
26774;SDS011;14362;51.902;7.626;2023-02-11T02:46:12;44.10;;;22.88;;
26774;SDS011;14362;51.902;7.626;2023-02-11T02:50:18;38.25;;;22.48;;
26774;SDS011;14362;51.902;7.626;2023-02-11T02:54:30;37.30;;;22.95;;
26774;SDS011;14362;51.902;7.626;2023-02-11T02:59:00;37.60;;;21.95;;
26774;SDS011;14362;51.902;7.626;2023-02-11T03:03:14;36.10;;;22.17;;
26774;SDS011;14362;51.902;7.626;2023-02-11T03:07:24;43.03;;;22.90;;
26774;SDS011;14362;51.902;7.626;2023-02-11T03:11:32;36.50;;;22.02;;
26774;SDS011;14362;51.902;7.626;2023-02-11T03:15:38;34.35;;;21.73;;
26774;SDS011;14362;51.902;7.626;2023-02-11T03:19:44;40.90;;;23.50;;
26774;SDS011;14362;51.902;7.626;2023-02-11T03:23:50;37.22;;;20.77;;
26774;SDS011;14362;51.902;7.626;2023-02-11T03:27:56;37.55;;;22.70;;
26774;SDS011;14362;51.902;7.626;2023-02-11T03:32:05;44.53;;;22.73;;
26774;SDS011;14362;51.902;7.626;2023-02-11T03:36:16;40.17;;;21.95;;
26774;SDS011;14362;51.902;7.626;2023-02-11T03:40:24;36.58;;;21.92;;
26774;SDS011;14362;51.902;7.626;2023-02-11T03:44:29;39.15;;;22.13;;
26774;SDS011;14362;51.902;7.626;2023-02-11T03:48:35;41.60;;;23.70;;
26774;SDS011;14362;51.902;7.626;2023-02-11T03:52:40;41.63;;;24.02;;
26774;SDS011;14362;51.902;7.626;2023-02-11T03:56:45;41.13;;;23.70;;
26774;SDS011;14362;51.902;7.626;2023-02-11T04:00:51;41.92;;;24.23;;
26774;SDS011;14362;51.902;7.626;2023-02-11T04:04:52;40.15;;;24.80;;
26774;SDS011;14362;51.902;7.626;2023-02-11T04:08:54;41.28;;;24.48;;
26774;SDS011;14362;51.902;7.626;2023-02-11T04:12:56;38.25;;;24.20;;
26774;SDS011;14362;51.902;7.626;2023-02-11T04:16:58;48.42;;;24.60;;
26774;SDS011;14362;51.902;7.626;2023-02-11T04:20:59;37.10;;;24.05;;
26774;SDS011;14362;51.902;7.626;2023-02-11T04:25:01;42.67;;;24.98;;
26774;SDS011;14362;51.902;7.626;2023-02-11T04:29:04;40.25;;;23.88;;
26774;SDS011;14362;51.902;7.626;2023-02-11T04:33:05;42.70;;;24.02;;
26774;SDS011;14362;51.902;7.626;2023-02-11T04:37:07;41.03;;;25.17;;
26774;SDS011;14362;51.902;7.626;2023-02-11T04:41:08;42.65;;;24.77;;
26774;SDS011;14362;51.902;7.626;2023-02-11T04:45:11;40.75;;;24.52;;
26774;SDS011;14362;51.902;7.626;2023-02-11T04:49:13;42.88;;;24.55;;
26774;SDS011;14362;51.902;7.626;2023-02-11T04:53:15;39.80;;;23.90;;
26774;SDS011;14362;51.902;7.626;2023-02-11T04:57:17;41.30;;;26.58;;
26774;SDS011;14362;51.902;7.626;2023-02-11T05:01:20;40.25;;;23.65;;
26774;SDS011;14362;51.902;7.626;2023-02-11T05:05:21;38.42;;;23.65;;
26774;SDS011;14362;51.902;7.626;2023-02-11T05:09:23;46.53;;;25.92;;
26774;SDS011;14362;51.902;7.626;2023-02-11T05:13:24;38.88;;;23.70;;
26774;SDS011;14362;51.902;7.626;2023-02-11T05:17:27;42.85;;;25.23;;
26774;SDS011;14362;51.902;7.626;2023-02-11T05:21:28;45.17;;;25.50;;
26774;SDS011;14362;51.902;7.626;2023-02-11T05:25:30;39.95;;;23.67;;
26774;SDS011;14362;51.902;7.626;2023-02-11T05:29:31;42.35;;;24.52;;
26774;SDS011;14362;51.902;7.626;2023-02-11T05:33:34;41.78;;;24.50;;
26774;SDS011;14362;51.902;7.626;2023-02-11T05:37:35;47.40;;;24.10;;
26774;SDS011;14362;51.902;7.626;2023-02-11T05:41:37;46.22;;;25.63;;
26774;SDS011;14362;51.902;7.626;2023-02-11T05:45:38;44.35;;;26.50;;
26774;SDS011;14362;51.902;7.626;2023-02-11T05:49:41;43.05;;;24.92;;
26774;SDS011;14362;51.902;7.626;2023-02-11T05:53:42;42.00;;;25.88;;
26774;SDS011;14362;51.902;7.626;2023-02-11T05:57:44;41.20;;;24.33;;
26774;SDS011;14362;51.902;7.626;2023-02-11T06:01:45;45.05;;;26.67;;
26774;SDS011;14362;51.902;7.626;2023-02-11T06:05:48;42.80;;;25.90;;
26774;SDS011;14362;51.902;7.626;2023-02-11T06:09:49;40.90;;;26.05;;
26774;SDS011;14362;51.902;7.626;2023-02-11T06:13:51;50.65;;;27.08;;
26774;SDS011;14362;51.902;7.626;2023-02-11T06:17:52;41.25;;;26.35;;
26774;SDS011;14362;51.902;7.626;2023-02-11T06:21:55;41.67;;;26.15;;
26774;SDS011;14362;51.902;7.626;2023-02-11T06:26:00;43.80;;;25.50;;
26774;SDS011;14362;51.902;7.626;2023-02-11T06:30:02;41.83;;;24.60;;
26774;SDS011;14362;51.902;7.626;2023-02-11T06:34:04;47.40;;;26.50;;
26774;SDS011;14362;51.902;7.626;2023-02-11T06:38:07;41.55;;;26.52;;
26774;SDS011;14362;51.902;7.626;2023-02-11T06:42:08;47.92;;;29.35;;
26774;SDS011;14362;51.902;7.626;2023-02-11T06:46:10;45.40;;;26.35;;
26774;SDS011;14362;51.902;7.626;2023-02-11T06:50:12;49.17;;;27.00;;
26774;SDS011;14362;51.902;7.626;2023-02-11T06:54:16;53.50;;;28.40;;
26774;SDS011;14362;51.902;7.626;2023-02-11T06:58:17;43.55;;;28.05;;
26774;SDS011;14362;51.902;7.626;2023-02-11T07:02:19;55.63;;;29.50;;
26774;SDS011;14362;51.902;7.626;2023-02-11T07:06:21;52.83;;;28.15;;
26774;SDS011;14362;51.902;7.626;2023-02-11T07:10:27;51.03;;;28.75;;
26774;SDS011;14362;51.902;7.626;2023-02-11T07:14:28;44.25;;;27.75;;
26774;SDS011;14362;51.902;7.626;2023-02-11T07:18:30;56.10;;;29.80;;
26774;SDS011;14362;51.902;7.626;2023-02-11T07:22:32;50.85;;;29.30;;
26774;SDS011;14362;51.902;7.626;2023-02-11T07:26:35;56.40;;;30.40;;
26774;SDS011;14362;51.902;7.626;2023-02-11T07:30:37;56.83;;;30.92;;
26774;SDS011;14362;51.902;7.626;2023-02-11T07:34:38;48.35;;;29.02;;
26774;SDS011;14362;51.902;7.626;2023-02-11T07:38:39;52.05;;;30.45;;
26774;SDS011;14362;51.902;7.626;2023-02-11T07:42:42;48.72;;;29.27;;
26774;SDS011;14362;51.902;7.626;2023-02-11T07:46:44;48.47;;;28.90;;
26774;SDS011;14362;51.902;7.626;2023-02-11T07:50:46;68.80;;;33.30;;
26774;SDS011;14362;51.902;7.626;2023-02-11T07:54:48;56.20;;;31.17;;
26774;SDS011;14362;51.902;7.626;2023-02-11T07:58:50;59.03;;;32.50;;
26774;SDS011;14362;51.902;7.626;2023-02-11T08:02:52;56.58;;;31.10;;
26774;SDS011;14362;51.902;7.626;2023-02-11T08:06:54;62.17;;;31.60;;
26774;SDS011;14362;51.902;7.626;2023-02-11T08:10:56;54.55;;;30.70;;
26774;SDS011;14362;51.902;7.626;2023-02-11T08:14:59;55.67;;;31.30;;
26774;SDS011;14362;51.902;7.626;2023-02-11T08:19:01;56.40;;;30.27;;
26774;SDS011;14362;51.902;7.626;2023-02-11T08:23:04;58.15;;;30.55;;
26774;SDS011;14362;51.902;7.626;2023-02-11T08:27:06;59.38;;;31.27;;
26774;SDS011;14362;51.902;7.626;2023-02-11T08:31:09;62.30;;;31.98;;
26774;SDS011;14362;51.902;7.626;2023-02-11T08:35:13;57.90;;;30.20;;
26774;SDS011;14362;51.902;7.626;2023-02-11T08:39:15;59.05;;;32.17;;
26774;SDS011;14362;51.902;7.626;2023-02-11T08:43:18;52.05;;;31.10;;
26774;SDS011;14362;51.902;7.626;2023-02-11T08:47:20;54.45;;;29.95;;
26774;SDS011;14362;51.902;7.626;2023-02-11T08:51:22;64.15;;;32.22;;
26774;SDS011;14362;51.902;7.626;2023-02-11T08:55:26;61.10;;;32.00;;
26774;SDS011;14362;51.902;7.626;2023-02-11T08:59:28;60.10;;;32.90;;
26774;SDS011;14362;51.902;7.626;2023-02-11T09:03:31;61.40;;;31.88;;
26774;SDS011;14362;51.902;7.626;2023-02-11T09:07:32;63.08;;;32.80;;
26774;SDS011;14362;51.902;7.626;2023-02-11T09:11:34;57.78;;;31.92;;
26774;SDS011;14362;51.902;7.626;2023-02-11T09:15:35;58.35;;;31.70;;
26774;SDS011;14362;51.902;7.626;2023-02-11T09:19:38;60.78;;;32.55;;
26774;SDS011;14362;51.902;7.626;2023-02-11T09:23:40;60.10;;;32.53;;
26774;SDS011;14362;51.902;7.626;2023-02-11T09:27:43;57.13;;;30.88;;
26774;SDS011;14362;51.902;7.626;2023-02-11T09:31:45;58.53;;;32.65;;
26774;SDS011;14362;51.902;7.626;2023-02-11T09:35:47;64.53;;;33.30;;
26774;SDS011;14362;51.902;7.626;2023-02-11T09:39:49;59.97;;;32.10;;
26774;SDS011;14362;51.902;7.626;2023-02-11T09:43:50;58.78;;;30.80;;
26774;SDS011;14362;51.902;7.626;2023-02-11T09:47:54;60.50;;;31.85;;
26774;SDS011;14362;51.902;7.626;2023-02-11T09:52:00;54.88;;;30.73;;
26774;SDS011;14362;51.902;7.626;2023-02-11T09:56:08;55.83;;;31.80;;
26774;SDS011;14362;51.902;7.626;2023-02-11T10:00:16;56.50;;;32.58;;
26774;SDS011;14362;51.902;7.626;2023-02-11T10:04:23;58.30;;;30.90;;
26774;SDS011;14362;51.902;7.626;2023-02-11T10:08:43;54.58;;;32.63;;
26774;SDS011;14362;51.902;7.626;2023-02-11T10:12:57;54.78;;;30.30;;
26774;SDS011;14362;51.902;7.626;2023-02-11T10:17:17;55.25;;;31.10;;
26774;SDS011;14362;51.902;7.626;2023-02-11T10:21:31;52.53;;;30.67;;
26774;SDS011;14362;51.902;7.626;2023-02-11T10:25:42;56.50;;;31.95;;
26774;SDS011;14362;51.902;7.626;2023-02-11T10:29:47;59.78;;;31.63;;
26774;SDS011;14362;51.902;7.626;2023-02-11T10:33:55;55.05;;;31.60;;
26774;SDS011;14362;51.902;7.626;2023-02-11T10:38:00;58.83;;;31.00;;
26774;SDS011;14362;51.902;7.626;2023-02-11T10:42:04;54.60;;;32.40;;
26774;SDS011;14362;51.902;7.626;2023-02-11T10:46:13;52.15;;;31.15;;
26774;SDS011;14362;51.902;7.626;2023-02-11T10:50:21;58.53;;;33.20;;
26774;SDS011;14362;51.902;7.626;2023-02-11T10:54:24;60.05;;;31.17;;
26774;SDS011;14362;51.902;7.626;2023-02-11T10:58:27;55.38;;;30.38;;
26774;SDS011;14362;51.902;7.626;2023-02-11T11:02:31;57.42;;;31.80;;
26774;SDS011;14362;51.902;7.626;2023-02-11T11:06:37;55.03;;;31.35;;
26774;SDS011;14362;51.902;7.626;2023-02-11T11:10:40;59.70;;;31.88;;
26774;SDS011;14362;51.902;7.626;2023-02-11T11:14:47;62.17;;;33.05;;
26774;SDS011;14362;51.902;7.626;2023-02-11T11:23:16;58.47;;;33.13;;
26774;SDS011;14362;51.902;7.626;2023-02-11T11:27:21;61.25;;;32.28;;
26774;SDS011;14362;51.902;7.626;2023-02-11T11:31:27;67.60;;;35.63;;
26774;SDS011;14362;51.902;7.626;2023-02-11T11:35:31;57.88;;;32.45;;
26774;SDS011;14362;51.902;7.626;2023-02-11T11:39:33;61.55;;;34.05;;
26774;SDS011;14362;51.902;7.626;2023-02-11T11:43:35;66.32;;;37.60;;
26774;SDS011;14362;51.902;7.626;2023-02-11T11:47:40;57.25;;;33.20;;
26774;SDS011;14362;51.902;7.626;2023-02-11T11:51:50;62.58;;;33.83;;
26774;SDS011;14362;51.902;7.626;2023-02-11T11:55:59;57.58;;;32.63;;
26774;SDS011;14362;51.902;7.626;2023-02-11T12:00:04;59.03;;;33.25;;
26774;SDS011;14362;51.902;7.626;2023-02-11T12:04:21;63.20;;;34.30;;
26774;SDS011;14362;51.902;7.626;2023-02-11T12:08:40;58.05;;;33.40;;
26774;SDS011;14362;51.902;7.626;2023-02-11T12:12:52;59.58;;;34.10;;
26774;SDS011;14362;51.902;7.626;2023-02-11T12:16:59;55.03;;;32.38;;
26774;SDS011;14362;51.902;7.626;2023-02-11T12:21:13;51.15;;;30.77;;
26774;SDS011;14362;51.902;7.626;2023-02-11T12:25:26;59.72;;;33.47;;
26774;SDS011;14362;51.902;7.626;2023-02-11T12:33:46;56.22;;;30.85;;
26774;SDS011;14362;51.902;7.626;2023-02-11T12:42:35;54.85;;;33.22;;
26774;SDS011;14362;51.902;7.626;2023-02-11T12:47:07;62.53;;;33.97;;
26774;SDS011;14362;51.902;7.626;2023-02-11T12:51:18;63.10;;;32.95;;
26774;SDS011;14362;51.902;7.626;2023-02-11T12:55:33;58.13;;;33.70;;
26774;SDS011;14362;51.902;7.626;2023-02-11T12:59:42;55.78;;;32.10;;
26774;SDS011;14362;51.902;7.626;2023-02-11T13:03:48;60.50;;;32.60;;
26774;SDS011;14362;51.902;7.626;2023-02-11T13:07:55;58.20;;;33.10;;
26774;SDS011;14362;51.902;7.626;2023-02-11T13:12:04;52.17;;;31.60;;
26774;SDS011;14362;51.902;7.626;2023-02-11T13:16:26;59.65;;;33.80;;
26774;SDS011;14362;51.902;7.626;2023-02-11T13:20:35;59.97;;;32.55;;
26774;SDS011;14362;51.902;7.626;2023-02-11T13:24:45;50.53;;;31.63;;
26774;SDS011;14362;51.902;7.626;2023-02-11T13:28:52;60.72;;;34.03;;
26774;SDS011;14362;51.902;7.626;2023-02-11T13:33:16;58.15;;;32.33;;
26774;SDS011;14362;51.902;7.626;2023-02-11T13:37:20;46.92;;;30.83;;
26774;SDS011;14362;51.902;7.626;2023-02-11T13:41:24;50.42;;;31.33;;
26774;SDS011;14362;51.902;7.626;2023-02-11T13:45:31;55.28;;;31.17;;
26774;SDS011;14362;51.902;7.626;2023-02-11T13:49:37;48.67;;;32.05;;
26774;SDS011;14362;51.902;7.626;2023-02-11T13:53:43;49.88;;;31.23;;
26774;SDS011;14362;51.902;7.626;2023-02-11T13:57:53;46.08;;;28.95;;
26774;SDS011;14362;51.902;7.626;2023-02-11T14:02:35;47.65;;;31.30;;
26774;SDS011;14362;51.902;7.626;2023-02-11T14:11:46;47.65;;;30.98;;
26774;SDS011;14362;51.902;7.626;2023-02-11T14:16:03;45.00;;;32.28;;
26774;SDS011;14362;51.902;7.626;2023-02-11T14:24:44;47.55;;;30.98;;
26774;SDS011;14362;51.902;7.626;2023-02-11T14:28:50;43.72;;;31.08;;
26774;SDS011;14362;51.902;7.626;2023-02-11T14:37:52;45.35;;;28.83;;
26774;SDS011;14362;51.902;7.626;2023-02-11T14:42:00;42.85;;;29.33;;
26774;SDS011;14362;51.902;7.626;2023-02-11T14:46:04;45.75;;;30.73;;
26774;SDS011;14362;51.902;7.626;2023-02-11T14:50:10;46.45;;;30.15;;
26774;SDS011;14362;51.902;7.626;2023-02-11T14:54:18;39.13;;;29.08;;
26774;SDS011;14362;51.902;7.626;2023-02-11T14:58:24;45.47;;;30.58;;
26774;SDS011;14362;51.902;7.626;2023-02-11T15:02:27;41.50;;;28.98;;
26774;SDS011;14362;51.902;7.626;2023-02-11T15:06:35;43.92;;;28.80;;
26774;SDS011;14362;51.902;7.626;2023-02-11T15:10:40;40.50;;;27.67;;
26774;SDS011;14362;51.902;7.626;2023-02-11T15:14:44;39.65;;;27.70;;
26774;SDS011;14362;51.902;7.626;2023-02-11T15:18:49;37.28;;;28.75;;
26774;SDS011;14362;51.902;7.626;2023-02-11T15:26:59;42.85;;;28.60;;
26774;SDS011;14362;51.902;7.626;2023-02-11T15:31:03;40.42;;;28.17;;
26774;SDS011;14362;51.902;7.626;2023-02-11T15:35:07;41.75;;;28.98;;
26774;SDS011;14362;51.902;7.626;2023-02-11T15:39:18;42.08;;;29.83;;
26774;SDS011;14362;51.902;7.626;2023-02-11T15:43:39;42.67;;;29.83;;
26774;SDS011;14362;51.902;7.626;2023-02-11T15:47:45;46.47;;;29.92;;
26774;SDS011;14362;51.902;7.626;2023-02-11T15:51:49;50.00;;;31.40;;
26774;SDS011;14362;51.902;7.626;2023-02-11T15:55:54;41.90;;;28.95;;
26774;SDS011;14362;51.902;7.626;2023-02-11T16:00:00;39.28;;;29.42;;
26774;SDS011;14362;51.902;7.626;2023-02-11T16:04:06;43.70;;;29.42;;
26774;SDS011;14362;51.902;7.626;2023-02-11T16:08:22;79.82;;;53.03;;
26774;SDS011;14362;51.902;7.626;2023-02-11T16:12:26;72.07;;;44.10;;
26774;SDS011;14362;51.902;7.626;2023-02-11T16:16:28;45.33;;;30.25;;
26774;SDS011;14362;51.902;7.626;2023-02-11T16:20:31;45.90;;;31.42;;
26774;SDS011;14362;51.902;7.626;2023-02-11T16:24:34;44.45;;;31.00;;
26774;SDS011;14362;51.902;7.626;2023-02-11T16:28:39;46.75;;;32.05;;
26774;SDS011;14362;51.902;7.626;2023-02-11T16:32:41;42.63;;;31.55;;
26774;SDS011;14362;51.902;7.626;2023-02-11T16:36:42;46.15;;;30.60;;
26774;SDS011;14362;51.902;7.626;2023-02-11T16:40:44;41.13;;;32.35;;
26774;SDS011;14362;51.902;7.626;2023-02-11T16:44:49;46.35;;;32.28;;
26774;SDS011;14362;51.902;7.626;2023-02-11T16:48:50;45.95;;;32.50;;
26774;SDS011;14362;51.902;7.626;2023-02-11T16:52:52;42.78;;;31.30;;
26774;SDS011;14362;51.902;7.626;2023-02-11T16:56:54;40.67;;;30.95;;
26774;SDS011;14362;51.902;7.626;2023-02-11T17:00:57;41.00;;;28.45;;
26774;SDS011;14362;51.902;7.626;2023-02-11T17:04:59;42.22;;;29.73;;
26774;SDS011;14362;51.902;7.626;2023-02-11T17:09:02;44.80;;;30.80;;
26774;SDS011;14362;51.902;7.626;2023-02-11T17:13:05;39.38;;;29.08;;
26774;SDS011;14362;51.902;7.626;2023-02-11T17:17:08;37.80;;;28.73;;
26774;SDS011;14362;51.902;7.626;2023-02-11T17:21:10;40.40;;;29.73;;
26774;SDS011;14362;51.902;7.626;2023-02-11T17:25:11;43.72;;;29.45;;
26774;SDS011;14362;51.902;7.626;2023-02-11T17:29:14;41.35;;;29.52;;
26774;SDS011;14362;51.902;7.626;2023-02-11T17:33:18;62.90;;;45.80;;
26774;SDS011;14362;51.902;7.626;2023-02-11T17:37:20;46.38;;;35.10;;
26774;SDS011;14362;51.902;7.626;2023-02-11T17:41:21;47.65;;;35.05;;
26774;SDS011;14362;51.902;7.626;2023-02-11T17:45:23;42.17;;;32.95;;
26774;SDS011;14362;51.902;7.626;2023-02-11T17:49:25;42.28;;;32.88;;
26774;SDS011;14362;51.902;7.626;2023-02-11T17:53:27;43.92;;;31.80;;
26774;SDS011;14362;51.902;7.626;2023-02-11T17:57:28;41.15;;;29.77;;
26774;SDS011;14362;51.902;7.626;2023-02-11T18:01:30;40.83;;;29.15;;
26774;SDS011;14362;51.902;7.626;2023-02-11T18:05:34;41.05;;;30.48;;
26774;SDS011;14362;51.902;7.626;2023-02-11T18:09:37;38.97;;;28.15;;
26774;SDS011;14362;51.902;7.626;2023-02-11T18:13:39;37.08;;;28.23;;
26774;SDS011;14362;51.902;7.626;2023-02-11T18:17:40;39.15;;;27.95;;
26774;SDS011;14362;51.902;7.626;2023-02-11T18:21:43;38.33;;;27.02;;
26774;SDS011;14362;51.902;7.626;2023-02-11T18:25:47;36.70;;;28.63;;
26774;SDS011;14362;51.902;7.626;2023-02-11T18:29:49;35.60;;;27.30;;
26774;SDS011;14362;51.902;7.626;2023-02-11T18:33:50;47.20;;;38.13;;
26774;SDS011;14362;51.902;7.626;2023-02-11T18:37:53;40.63;;;30.38;;
26774;SDS011;14362;51.902;7.626;2023-02-11T18:41:55;39.70;;;29.98;;
26774;SDS011;14362;51.902;7.626;2023-02-11T18:45:58;36.55;;;30.38;;
26774;SDS011;14362;51.902;7.626;2023-02-11T18:49:59;43.05;;;31.73;;
26774;SDS011;14362;51.902;7.626;2023-02-11T18:54:02;41.72;;;30.67;;
26774;SDS011;14362;51.902;7.626;2023-02-11T18:58:04;36.92;;;29.73;;
26774;SDS011;14362;51.902;7.626;2023-02-11T19:02:05;39.15;;;29.92;;
26774;SDS011;14362;51.902;7.626;2023-02-11T19:06:11;49.75;;;33.03;;
26774;SDS011;14362;51.902;7.626;2023-02-11T19:10:15;40.25;;;29.27;;
26774;SDS011;14362;51.902;7.626;2023-02-11T19:14:18;39.83;;;29.02;;
26774;SDS011;14362;51.902;7.626;2023-02-11T19:18:21;42.43;;;31.57;;
26774;SDS011;14362;51.902;7.626;2023-02-11T19:22:23;45.22;;;30.67;;
26774;SDS011;14362;51.902;7.626;2023-02-11T19:26:25;37.58;;;27.02;;
26774;SDS011;14362;51.902;7.626;2023-02-11T19:30:28;40.22;;;30.67;;
26774;SDS011;14362;51.902;7.626;2023-02-11T19:34:29;41.03;;;30.55;;
26774;SDS011;14362;51.902;7.626;2023-02-11T19:38:32;38.63;;;29.45;;
26774;SDS011;14362;51.902;7.626;2023-02-11T19:42:35;44.90;;;33.40;;
26774;SDS011;14362;51.902;7.626;2023-02-11T19:46:37;41.28;;;30.25;;
26774;SDS011;14362;51.902;7.626;2023-02-11T19:50:39;41.33;;;30.67;;
26774;SDS011;14362;51.902;7.626;2023-02-11T19:54:41;40.78;;;29.67;;
26774;SDS011;14362;51.902;7.626;2023-02-11T19:58:43;43.17;;;29.55;;
26774;SDS011;14362;51.902;7.626;2023-02-11T20:02:45;40.67;;;28.85;;
26774;SDS011;14362;51.902;7.626;2023-02-11T20:06:46;49.67;;;36.95;;
26774;SDS011;14362;51.902;7.626;2023-02-11T20:10:48;68.20;;;47.22;;
26774;SDS011;14362;51.902;7.626;2023-02-11T20:14:51;48.65;;;36.95;;
26774;SDS011;14362;51.902;7.626;2023-02-11T20:18:52;51.33;;;36.92;;
26774;SDS011;14362;51.902;7.626;2023-02-11T20:22:54;43.90;;;30.52;;
26774;SDS011;14362;51.902;7.626;2023-02-11T20:26:56;43.97;;;32.30;;
26774;SDS011;14362;51.902;7.626;2023-02-11T20:30:59;45.70;;;30.92;;
26774;SDS011;14362;51.902;7.626;2023-02-11T20:35:00;50.03;;;34.55;;
26774;SDS011;14362;51.902;7.626;2023-02-11T20:39:02;51.53;;;34.53;;
26774;SDS011;14362;51.902;7.626;2023-02-11T20:43:05;46.95;;;32.78;;
26774;SDS011;14362;51.902;7.626;2023-02-11T20:47:07;43.55;;;30.40;;
26774;SDS011;14362;51.902;7.626;2023-02-11T20:51:10;37.17;;;28.13;;
26774;SDS011;14362;51.902;7.626;2023-02-11T20:55:13;43.10;;;31.50;;
26774;SDS011;14362;51.902;7.626;2023-02-11T20:59:15;45.97;;;29.88;;
26774;SDS011;14362;51.902;7.626;2023-02-11T21:03:18;41.13;;;30.27;;
26774;SDS011;14362;51.902;7.626;2023-02-11T21:07:20;40.97;;;29.35;;
26774;SDS011;14362;51.902;7.626;2023-02-11T21:11:21;49.22;;;32.58;;
26774;SDS011;14362;51.902;7.626;2023-02-11T21:15:23;43.30;;;30.73;;
26774;SDS011;14362;51.902;7.626;2023-02-11T21:19:26;38.10;;;28.17;;
26774;SDS011;14362;51.902;7.626;2023-02-11T21:23:27;43.95;;;30.20;;
26774;SDS011;14362;51.902;7.626;2023-02-11T21:27:29;46.88;;;34.90;;
26774;SDS011;14362;51.902;7.626;2023-02-11T21:31:32;42.42;;;32.53;;
26774;SDS011;14362;51.902;7.626;2023-02-11T21:35:36;44.80;;;33.25;;
26774;SDS011;14362;51.902;7.626;2023-02-11T21:39:38;43.95;;;30.05;;
26774;SDS011;14362;51.902;7.626;2023-02-11T21:43:41;41.50;;;29.95;;
26774;SDS011;14362;51.902;7.626;2023-02-11T21:47:42;40.55;;;27.30;;
26774;SDS011;14362;51.902;7.626;2023-02-11T21:51:45;43.88;;;28.77;;
26774;SDS011;14362;51.902;7.626;2023-02-11T21:55:47;39.28;;;28.85;;
26774;SDS011;14362;51.902;7.626;2023-02-11T21:59:50;41.70;;;27.70;;
26774;SDS011;14362;51.902;7.626;2023-02-11T22:03:51;39.60;;;27.83;;
26774;SDS011;14362;51.902;7.626;2023-02-11T22:07:55;41.97;;;29.55;;
26774;SDS011;14362;51.902;7.626;2023-02-11T22:11:57;49.63;;;32.22;;
26774;SDS011;14362;51.902;7.626;2023-02-11T22:15:59;40.60;;;30.00;;
26774;SDS011;14362;51.902;7.626;2023-02-11T22:20:01;46.92;;;31.52;;
26774;SDS011;14362;51.902;7.626;2023-02-11T22:24:05;39.05;;;27.70;;
26774;SDS011;14362;51.902;7.626;2023-02-11T22:28:07;36.95;;;26.55;;
26774;SDS011;14362;51.902;7.626;2023-02-11T22:32:08;34.83;;;25.75;;
26774;SDS011;14362;51.902;7.626;2023-02-11T22:36:11;36.97;;;25.48;;
26774;SDS011;14362;51.902;7.626;2023-02-11T22:40:17;40.97;;;27.58;;
26774;SDS011;14362;51.902;7.626;2023-02-11T22:44:18;38.50;;;26.55;;
26774;SDS011;14362;51.902;7.626;2023-02-11T22:48:20;37.67;;;26.98;;
26774;SDS011;14362;51.902;7.626;2023-02-11T22:52:22;37.65;;;28.77;;
26774;SDS011;14362;51.902;7.626;2023-02-11T22:56:25;39.78;;;27.15;;
26774;SDS011;14362;51.902;7.626;2023-02-11T23:00:27;36.00;;;26.08;;
26774;SDS011;14362;51.902;7.626;2023-02-11T23:04:35;39.55;;;27.30;;
26774;SDS011;14362;51.902;7.626;2023-02-11T23:08:37;43.25;;;29.33;;
26774;SDS011;14362;51.902;7.626;2023-02-11T23:12:40;40.95;;;29.15;;
26774;SDS011;14362;51.902;7.626;2023-02-11T23:16:42;39.35;;;27.67;;
26774;SDS011;14362;51.902;7.626;2023-02-11T23:20:43;46.67;;;28.88;;
26774;SDS011;14362;51.902;7.626;2023-02-11T23:24:45;41.65;;;28.75;;
26774;SDS011;14362;51.902;7.626;2023-02-11T23:28:48;39.08;;;27.08;;
26774;SDS011;14362;51.902;7.626;2023-02-11T23:32:49;41.85;;;29.77;;
26774;SDS011;14362;51.902;7.626;2023-02-11T23:36:51;43.70;;;30.15;;
26774;SDS011;14362;51.902;7.626;2023-02-11T23:40:53;41.28;;;29.58;;
26774;SDS011;14362;51.902;7.626;2023-02-11T23:44:56;38.80;;;28.13;;
26774;SDS011;14362;51.902;7.626;2023-02-11T23:48:57;42.50;;;29.15;;
26774;SDS011;14362;51.902;7.626;2023-02-11T23:52:59;39.53;;;29.13;;
26774;SDS011;14362;51.902;7.626;2023-02-11T23:57:00;40.83;;;28.65;;
